sensor_id;sensor_type;location;lat;lon;timestamp;temperature;humidity
51725;DHT22;37801;53.224;6.552;2022-10-13T00:00:40;10.50;99.90
51725;DHT22;37801;53.224;6.552;2022-10-13T00:03:06;10.50;99.90
51725;DHT22;37801;53.224;6.552;2022-10-13T00:05:33;10.50;99.90
51725;DHT22;37801;53.224;6.552;2022-10-13T00:07:59;10.50;99.90
51725;DHT22;37801;53.224;6.552;2022-10-13T00:10:26;10.50;99.90
51725;DHT22;37801;53.224;6.552;2022-10-13T00:12:51;10.50;99.90
51725;DHT22;37801;53.224;6.552;2022-10-13T00:15:18;10.50;99.90
51725;DHT22;37801;53.224;6.552;2022-10-13T00:17:44;10.50;99.90
51725;DHT22;37801;53.224;6.552;2022-10-13T00:20:11;10.50;99.90
51725;DHT22;37801;53.224;6.552;2022-10-13T00:22:36;10.50;99.90
51725;DHT22;37801;53.224;6.552;2022-10-13T00:25:03;10.60;99.90
51725;DHT22;37801;53.224;6.552;2022-10-13T00:27:28;10.50;99.90
51725;DHT22;37801;53.224;6.552;2022-10-13T00:29:54;10.60;99.90
51725;DHT22;37801;53.224;6.552;2022-10-13T00:32:20;10.50;99.90
51725;DHT22;37801;53.224;6.552;2022-10-13T00:34:45;10.50;99.90
51725;DHT22;37801;53.224;6.552;2022-10-13T00:37:11;10.60;99.90
51725;DHT22;37801;53.224;6.552;2022-10-13T00:39:37;10.50;99.90
51725;DHT22;37801;53.224;6.552;2022-10-13T00:42:03;10.50;99.90
51725;DHT22;37801;53.224;6.552;2022-10-13T00:45:14;10.50;99.90
51725;DHT22;37801;53.224;6.552;2022-10-13T00:47:44;10.60;99.90
51725;DHT22;37801;53.224;6.552;2022-10-13T00:50:18;10.60;99.90
51725;DHT22;37801;53.224;6.552;2022-10-13T00:52:46;10.60;99.90
51725;DHT22;37801;53.224;6.552;2022-10-13T00:55:17;10.60;99.90
51725;DHT22;37801;53.224;6.552;2022-10-13T00:57:45;10.60;99.90
51725;DHT22;37801;53.224;6.552;2022-10-13T01:00:13;10.60;99.90
51725;DHT22;37801;53.224;6.552;2022-10-13T01:02:39;10.60;99.90
51725;DHT22;37801;53.224;6.552;2022-10-13T01:05:06;10.60;99.90
51725;DHT22;37801;53.224;6.552;2022-10-13T01:07:33;10.60;99.90
51725;DHT22;37801;53.224;6.552;2022-10-13T01:09:59;10.60;99.90
51725;DHT22;37801;53.224;6.552;2022-10-13T01:15:23;10.60;99.90
51725;DHT22;37801;53.224;6.552;2022-10-13T01:34:52;10.60;99.90
51725;DHT22;37801;53.224;6.552;2022-10-13T01:42:31;10.60;99.90
51725;DHT22;37801;53.224;6.552;2022-10-13T01:45:01;10.60;99.90
51725;DHT22;37801;53.224;6.552;2022-10-13T01:47:31;10.70;99.90
51725;DHT22;37801;53.224;6.552;2022-10-13T01:49:57;10.60;99.90
51725;DHT22;37801;53.224;6.552;2022-10-13T01:52:26;10.70;99.90
51725;DHT22;37801;53.224;6.552;2022-10-13T01:54:55;10.60;99.90
51725;DHT22;37801;53.224;6.552;2022-10-13T01:57:39;10.60;99.90
51725;DHT22;37801;53.224;6.552;2022-10-13T02:00:15;10.60;99.90
51725;DHT22;37801;53.224;6.552;2022-10-13T02:05:27;10.60;99.90
51725;DHT22;37801;53.224;6.552;2022-10-13T02:11:02;10.70;99.90
51725;DHT22;37801;53.224;6.552;2022-10-13T02:13:35;10.70;99.90
51725;DHT22;37801;53.224;6.552;2022-10-13T02:16:04;10.60;99.90
51725;DHT22;37801;53.224;6.552;2022-10-13T02:18:33;10.70;99.90
51725;DHT22;37801;53.224;6.552;2022-10-13T02:20:59;10.70;99.90
51725;DHT22;37801;53.224;6.552;2022-10-13T02:23:26;10.70;99.90
51725;DHT22;37801;53.224;6.552;2022-10-13T02:25:54;10.60;99.90
51725;DHT22;37801;53.224;6.552;2022-10-13T02:28:20;10.70;99.90
51725;DHT22;37801;53.224;6.552;2022-10-13T02:30:46;10.70;99.90
51725;DHT22;37801;53.224;6.552;2022-10-13T02:33:13;10.70;99.90
51725;DHT22;37801;53.224;6.552;2022-10-13T02:35:39;10.60;99.90
51725;DHT22;37801;53.224;6.552;2022-10-13T02:38:05;10.70;99.90
51725;DHT22;37801;53.224;6.552;2022-10-13T02:40:30;10.60;99.90
51725;DHT22;37801;53.224;6.552;2022-10-13T02:42:56;10.60;99.90
51725;DHT22;37801;53.224;6.552;2022-10-13T02:45:22;10.60;99.90
51725;DHT22;37801;53.224;6.552;2022-10-13T02:47:48;10.60;99.90
51725;DHT22;37801;53.224;6.552;2022-10-13T02:50:14;10.50;99.90
51725;DHT22;37801;53.224;6.552;2022-10-13T02:52:40;10.50;99.90
51725;DHT22;37801;53.224;6.552;2022-10-13T02:55:06;10.50;99.90
51725;DHT22;37801;53.224;6.552;2022-10-13T02:57:32;10.50;99.90
51725;DHT22;37801;53.224;6.552;2022-10-13T02:59:58;10.50;99.90
51725;DHT22;37801;53.224;6.552;2022-10-13T03:02:25;10.50;99.90
51725;DHT22;37801;53.224;6.552;2022-10-13T03:04:52;10.40;99.90
51725;DHT22;37801;53.224;6.552;2022-10-13T03:07:17;10.40;99.90
51725;DHT22;37801;53.224;6.552;2022-10-13T03:09:43;10.40;99.90
51725;DHT22;37801;53.224;6.552;2022-10-13T03:12:09;10.50;99.90
51725;DHT22;37801;53.224;6.552;2022-10-13T03:14:34;10.50;99.90
51725;DHT22;37801;53.224;6.552;2022-10-13T03:17:00;10.40;99.90
51725;DHT22;37801;53.224;6.552;2022-10-13T03:19:26;10.50;99.90
51725;DHT22;37801;53.224;6.552;2022-10-13T03:21:52;10.40;99.90
51725;DHT22;37801;53.224;6.552;2022-10-13T03:24:18;10.50;99.90
51725;DHT22;37801;53.224;6.552;2022-10-13T03:26:44;10.50;99.90
51725;DHT22;37801;53.224;6.552;2022-10-13T03:29:16;10.50;99.90
51725;DHT22;37801;53.224;6.552;2022-10-13T03:31:43;10.50;99.90
51725;DHT22;37801;53.224;6.552;2022-10-13T03:34:09;10.50;99.90
51725;DHT22;37801;53.224;6.552;2022-10-13T03:36:36;10.40;99.90
51725;DHT22;37801;53.224;6.552;2022-10-13T03:39:01;10.50;99.90
51725;DHT22;37801;53.224;6.552;2022-10-13T03:41:27;10.50;99.90
51725;DHT22;37801;53.224;6.552;2022-10-13T03:43:53;10.50;99.90
51725;DHT22;37801;53.224;6.552;2022-10-13T03:46:19;10.50;99.90
51725;DHT22;37801;53.224;6.552;2022-10-13T03:48:45;10.50;99.90
51725;DHT22;37801;53.224;6.552;2022-10-13T03:51:17;10.50;99.90
51725;DHT22;37801;53.224;6.552;2022-10-13T03:53:44;10.60;99.90
51725;DHT22;37801;53.224;6.552;2022-10-13T03:56:14;10.50;99.90
51725;DHT22;37801;53.224;6.552;2022-10-13T03:58:40;10.50;99.90
51725;DHT22;37801;53.224;6.552;2022-10-13T04:01:07;10.50;99.90
51725;DHT22;37801;53.224;6.552;2022-10-13T04:03:33;10.50;99.90
51725;DHT22;37801;53.224;6.552;2022-10-13T04:06:00;10.50;99.90
51725;DHT22;37801;53.224;6.552;2022-10-13T04:08:27;10.50;99.90
51725;DHT22;37801;53.224;6.552;2022-10-13T04:11:05;10.50;99.90
51725;DHT22;37801;53.224;6.552;2022-10-13T04:13:31;10.50;99.90
51725;DHT22;37801;53.224;6.552;2022-10-13T04:16:05;10.40;99.90
51725;DHT22;37801;53.224;6.552;2022-10-13T04:18:31;10.40;99.90
51725;DHT22;37801;53.224;6.552;2022-10-13T04:20:57;10.40;99.90
51725;DHT22;37801;53.224;6.552;2022-10-13T04:23:23;10.40;99.90
51725;DHT22;37801;53.224;6.552;2022-10-13T04:25:49;10.30;99.90
51725;DHT22;37801;53.224;6.552;2022-10-13T04:28:15;10.40;99.90
51725;DHT22;37801;53.224;6.552;2022-10-13T04:30:41;10.30;99.90
51725;DHT22;37801;53.224;6.552;2022-10-13T04:33:07;10.30;99.90
51725;DHT22;37801;53.224;6.552;2022-10-13T04:35:33;10.30;99.90
51725;DHT22;37801;53.224;6.552;2022-10-13T04:37:58;10.30;99.90
51725;DHT22;37801;53.224;6.552;2022-10-13T04:40:25;10.30;99.90
51725;DHT22;37801;53.224;6.552;2022-10-13T04:42:51;10.30;99.90
51725;DHT22;37801;53.224;6.552;2022-10-13T04:45:17;10.30;99.90
51725;DHT22;37801;53.224;6.552;2022-10-13T04:47:43;10.30;99.90
51725;DHT22;37801;53.224;6.552;2022-10-13T04:50:09;10.30;99.90
51725;DHT22;37801;53.224;6.552;2022-10-13T04:52:35;10.30;99.90
51725;DHT22;37801;53.224;6.552;2022-10-13T04:55:01;10.30;99.90
51725;DHT22;37801;53.224;6.552;2022-10-13T04:57:27;10.30;99.90
51725;DHT22;37801;53.224;6.552;2022-10-13T04:59:53;10.30;99.90
51725;DHT22;37801;53.224;6.552;2022-10-13T05:02:18;10.30;99.90
51725;DHT22;37801;53.224;6.552;2022-10-13T05:04:44;10.30;99.90
51725;DHT22;37801;53.224;6.552;2022-10-13T05:07:10;10.30;99.90
51725;DHT22;37801;53.224;6.552;2022-10-13T05:09:35;10.30;99.90
51725;DHT22;37801;53.224;6.552;2022-10-13T05:12:01;10.40;99.90
51725;DHT22;37801;53.224;6.552;2022-10-13T05:14:27;10.30;99.90
51725;DHT22;37801;53.224;6.552;2022-10-13T05:16:52;10.40;99.90
51725;DHT22;37801;53.224;6.552;2022-10-13T05:19:18;10.30;99.90
51725;DHT22;37801;53.224;6.552;2022-10-13T05:21:44;10.40;99.90
51725;DHT22;37801;53.224;6.552;2022-10-13T05:24:10;10.40;99.90
51725;DHT22;37801;53.224;6.552;2022-10-13T05:26:38;10.40;99.90
51725;DHT22;37801;53.224;6.552;2022-10-13T05:29:04;10.40;99.90
51725;DHT22;37801;53.224;6.552;2022-10-13T05:31:31;10.40;99.90
51725;DHT22;37801;53.224;6.552;2022-10-13T05:33:57;10.40;99.90
51725;DHT22;37801;53.224;6.552;2022-10-13T05:36:25;10.40;99.90
51725;DHT22;37801;53.224;6.552;2022-10-13T05:38:53;10.40;99.90
51725;DHT22;37801;53.224;6.552;2022-10-13T05:41:19;10.40;99.90
51725;DHT22;37801;53.224;6.552;2022-10-13T05:43:45;10.40;99.90
51725;DHT22;37801;53.224;6.552;2022-10-13T05:46:11;10.40;99.90
51725;DHT22;37801;53.224;6.552;2022-10-13T05:48:37;10.40;99.90
51725;DHT22;37801;53.224;6.552;2022-10-13T05:51:09;10.40;99.90
51725;DHT22;37801;53.224;6.552;2022-10-13T05:53:39;10.40;99.90
51725;DHT22;37801;53.224;6.552;2022-10-13T05:56:10;10.40;99.90
51725;DHT22;37801;53.224;6.552;2022-10-13T05:58:47;10.50;99.90
51725;DHT22;37801;53.224;6.552;2022-10-13T06:01:18;10.30;99.90
51725;DHT22;37801;53.224;6.552;2022-10-13T06:03:45;10.40;99.90
51725;DHT22;37801;53.224;6.552;2022-10-13T06:06:13;10.40;99.90
51725;DHT22;37801;53.224;6.552;2022-10-13T06:08:39;10.40;99.90
51725;DHT22;37801;53.224;6.552;2022-10-13T06:11:05;10.40;99.90
51725;DHT22;37801;53.224;6.552;2022-10-13T06:13:31;10.40;99.90
51725;DHT22;37801;53.224;6.552;2022-10-13T06:15:58;10.40;99.90
51725;DHT22;37801;53.224;6.552;2022-10-13T06:18:23;10.50;99.90
51725;DHT22;37801;53.224;6.552;2022-10-13T06:20:49;10.50;99.90
51725;DHT22;37801;53.224;6.552;2022-10-13T06:23:15;10.50;99.90
51725;DHT22;37801;53.224;6.552;2022-10-13T06:25:51;10.50;99.90
51725;DHT22;37801;53.224;6.552;2022-10-13T06:28:17;10.50;99.90
51725;DHT22;37801;53.224;6.552;2022-10-13T06:30:44;10.50;99.90
51725;DHT22;37801;53.224;6.552;2022-10-13T06:33:14;10.50;99.90
51725;DHT22;37801;53.224;6.552;2022-10-13T06:35:40;10.50;99.90
51725;DHT22;37801;53.224;6.552;2022-10-13T06:38:05;10.70;99.90
51725;DHT22;37801;53.224;6.552;2022-10-13T06:40:31;10.60;99.90
51725;DHT22;37801;53.224;6.552;2022-10-13T06:42:57;10.70;99.90
51725;DHT22;37801;53.224;6.552;2022-10-13T06:45:23;10.70;99.90
51725;DHT22;37801;53.224;6.552;2022-10-13T06:47:48;10.70;99.90
51725;DHT22;37801;53.224;6.552;2022-10-13T06:50:14;10.80;99.90
51725;DHT22;37801;53.224;6.552;2022-10-13T06:52:40;10.80;99.90
51725;DHT22;37801;53.224;6.552;2022-10-13T06:55:06;10.80;99.90
51725;DHT22;37801;53.224;6.552;2022-10-13T06:57:32;10.80;99.90
51725;DHT22;37801;53.224;6.552;2022-10-13T06:59:58;10.90;99.90
51725;DHT22;37801;53.224;6.552;2022-10-13T07:02:23;10.90;99.90
51725;DHT22;37801;53.224;6.552;2022-10-13T07:04:49;10.90;99.90
51725;DHT22;37801;53.224;6.552;2022-10-13T07:07:15;10.90;99.90
51725;DHT22;37801;53.224;6.552;2022-10-13T07:09:41;10.90;99.90
51725;DHT22;37801;53.224;6.552;2022-10-13T07:12:07;10.90;99.90
51725;DHT22;37801;53.224;6.552;2022-10-13T07:14:33;11.00;99.90
51725;DHT22;37801;53.224;6.552;2022-10-13T07:16:58;10.90;99.90
51725;DHT22;37801;53.224;6.552;2022-10-13T07:19:25;11.00;99.90
51725;DHT22;37801;53.224;6.552;2022-10-13T07:21:50;11.00;99.90
51725;DHT22;37801;53.224;6.552;2022-10-13T07:24:16;11.10;99.90
51725;DHT22;37801;53.224;6.552;2022-10-13T07:26:42;11.10;99.90
51725;DHT22;37801;53.224;6.552;2022-10-13T07:29:08;11.20;99.90
51725;DHT22;37801;53.224;6.552;2022-10-13T07:31:34;11.20;99.90
51725;DHT22;37801;53.224;6.552;2022-10-13T07:34:00;11.30;99.90
51725;DHT22;37801;53.224;6.552;2022-10-13T07:36:26;11.40;99.90
51725;DHT22;37801;53.224;6.552;2022-10-13T07:38:52;11.40;99.90
51725;DHT22;37801;53.224;6.552;2022-10-13T07:41:19;11.50;99.90
51725;DHT22;37801;53.224;6.552;2022-10-13T07:43:45;11.50;99.90
51725;DHT22;37801;53.224;6.552;2022-10-13T07:46:15;11.50;99.90
51725;DHT22;37801;53.224;6.552;2022-10-13T07:48:40;11.50;99.90
51725;DHT22;37801;53.224;6.552;2022-10-13T07:51:08;11.50;99.90
51725;DHT22;37801;53.224;6.552;2022-10-13T07:53:34;11.60;99.90
51725;DHT22;37801;53.224;6.552;2022-10-13T07:56:05;11.60;99.90
51725;DHT22;37801;53.224;6.552;2022-10-13T07:58:33;11.60;99.90
51725;DHT22;37801;53.224;6.552;2022-10-13T08:01:01;11.60;99.90
51725;DHT22;37801;53.224;6.552;2022-10-13T08:03:27;11.70;99.90
51725;DHT22;37801;53.224;6.552;2022-10-13T08:05:54;11.80;99.90
51725;DHT22;37801;53.224;6.552;2022-10-13T08:08:20;11.70;99.90
51725;DHT22;37801;53.224;6.552;2022-10-13T08:10:46;11.90;99.90
51725;DHT22;37801;53.224;6.552;2022-10-13T08:13:12;11.90;99.90
51725;DHT22;37801;53.224;6.552;2022-10-13T08:15:39;12.00;99.90
51725;DHT22;37801;53.224;6.552;2022-10-13T08:18:06;12.00;99.90
51725;DHT22;37801;53.224;6.552;2022-10-13T08:20:32;12.00;99.90
51725;DHT22;37801;53.224;6.552;2022-10-13T08:22:58;12.10;99.90
51725;DHT22;37801;53.224;6.552;2022-10-13T08:25:24;12.10;99.90
51725;DHT22;37801;53.224;6.552;2022-10-13T08:27:50;12.10;99.90
51725;DHT22;37801;53.224;6.552;2022-10-13T08:30:16;12.10;99.90
51725;DHT22;37801;53.224;6.552;2022-10-13T08:32:41;12.10;99.90
51725;DHT22;37801;53.224;6.552;2022-10-13T08:35:08;12.00;99.90
51725;DHT22;37801;53.224;6.552;2022-10-13T08:37:34;12.00;99.90
51725;DHT22;37801;53.224;6.552;2022-10-13T08:40:00;12.10;99.90
51725;DHT22;37801;53.224;6.552;2022-10-13T08:42:26;12.00;99.90
51725;DHT22;37801;53.224;6.552;2022-10-13T08:44:59;12.00;99.90
51725;DHT22;37801;53.224;6.552;2022-10-13T08:50:02;12.00;99.90
51725;DHT22;37801;53.224;6.552;2022-10-13T08:53:24;12.00;99.90
51725;DHT22;37801;53.224;6.552;2022-10-13T08:58:09;12.00;99.90
51725;DHT22;37801;53.224;6.552;2022-10-13T09:00:36;12.10;99.90
51725;DHT22;37801;53.224;6.552;2022-10-13T09:03:26;12.10;99.90
51725;DHT22;37801;53.224;6.552;2022-10-13T09:08:37;12.10;99.90
51725;DHT22;37801;53.224;6.552;2022-10-13T09:11:04;12.20;99.90
51725;DHT22;37801;53.224;6.552;2022-10-13T09:13:29;12.20;99.90
51725;DHT22;37801;53.224;6.552;2022-10-13T09:15:56;12.20;99.90
51725;DHT22;37801;53.224;6.552;2022-10-13T09:18:28;12.30;99.90
51725;DHT22;37801;53.224;6.552;2022-10-13T09:21:21;12.30;99.90
51725;DHT22;37801;53.224;6.552;2022-10-13T09:23:51;12.40;99.90
51725;DHT22;37801;53.224;6.552;2022-10-13T09:26:23;12.30;99.90
51725;DHT22;37801;53.224;6.552;2022-10-13T09:28:51;12.40;99.90
51725;DHT22;37801;53.224;6.552;2022-10-13T09:31:25;12.40;99.90
51725;DHT22;37801;53.224;6.552;2022-10-13T09:36:37;12.50;99.90
51725;DHT22;37801;53.224;6.552;2022-10-13T09:39:15;12.50;99.90
51725;DHT22;37801;53.224;6.552;2022-10-13T09:41:42;12.50;99.90
51725;DHT22;37801;53.224;6.552;2022-10-13T09:44:12;12.50;99.90
51725;DHT22;37801;53.224;6.552;2022-10-13T09:46:45;12.50;99.90
51725;DHT22;37801;53.224;6.552;2022-10-13T09:49:28;12.50;99.90
51725;DHT22;37801;53.224;6.552;2022-10-13T09:52:16;12.50;99.90
51725;DHT22;37801;53.224;6.552;2022-10-13T09:54:51;12.50;99.90
51725;DHT22;37801;53.224;6.552;2022-10-13T09:59:58;12.60;99.90
51725;DHT22;37801;53.224;6.552;2022-10-13T10:02:54;12.60;99.90
51725;DHT22;37801;53.224;6.552;2022-10-13T10:05:24;12.60;99.90
51725;DHT22;37801;53.224;6.552;2022-10-13T10:07:50;12.70;99.90
51725;DHT22;37801;53.224;6.552;2022-10-13T10:10:34;12.80;99.90
51725;DHT22;37801;53.224;6.552;2022-10-13T10:13:01;12.80;99.90
51725;DHT22;37801;53.224;6.552;2022-10-13T10:21:37;12.90;99.90
51725;DHT22;37801;53.224;6.552;2022-10-13T10:27:34;13.00;99.90
51725;DHT22;37801;53.224;6.552;2022-10-13T10:30:02;13.00;99.90
51725;DHT22;37801;53.224;6.552;2022-10-13T10:44:09;13.00;99.90
51725;DHT22;37801;53.224;6.552;2022-10-13T10:46:45;12.90;99.90
51725;DHT22;37801;53.224;6.552;2022-10-13T10:51:53;12.90;99.90
51725;DHT22;37801;53.224;6.552;2022-10-13T10:56:57;13.00;99.90
51725;DHT22;37801;53.224;6.552;2022-10-13T11:02:43;13.00;99.90
51725;DHT22;37801;53.224;6.552;2022-10-13T11:05:12;13.00;99.90
51725;DHT22;37801;53.224;6.552;2022-10-13T11:15:39;13.00;99.90
51725;DHT22;37801;53.224;6.552;2022-10-13T11:21:09;13.10;99.90
51725;DHT22;37801;53.224;6.552;2022-10-13T11:23:43;13.20;99.90
51725;DHT22;37801;53.224;6.552;2022-10-13T11:26:23;13.20;99.90
51725;DHT22;37801;53.224;6.552;2022-10-13T11:28:51;13.30;99.90
51725;DHT22;37801;53.224;6.552;2022-10-13T11:31:51;13.30;99.90
51725;DHT22;37801;53.224;6.552;2022-10-13T11:34:35;13.40;99.90
51725;DHT22;37801;53.224;6.552;2022-10-13T11:37:02;13.40;99.90
51725;DHT22;37801;53.224;6.552;2022-10-13T11:39:49;13.40;99.90
51725;DHT22;37801;53.224;6.552;2022-10-13T11:45:58;13.40;99.90
51725;DHT22;37801;53.224;6.552;2022-10-13T11:56:54;13.40;99.90
51725;DHT22;37801;53.224;6.552;2022-10-13T11:59:31;13.40;99.90
51725;DHT22;37801;53.224;6.552;2022-10-13T12:04:35;13.30;99.90
51725;DHT22;37801;53.224;6.552;2022-10-13T12:07:07;13.40;99.90
51725;DHT22;37801;53.224;6.552;2022-10-13T12:09:37;13.40;99.90
51725;DHT22;37801;53.224;6.552;2022-10-13T12:12:15;13.50;99.90
51725;DHT22;37801;53.224;6.552;2022-10-13T12:14:44;13.50;99.90
51725;DHT22;37801;53.224;6.552;2022-10-13T12:17:31;13.60;99.90
51725;DHT22;37801;53.224;6.552;2022-10-13T12:20:01;13.70;99.90
51725;DHT22;37801;53.224;6.552;2022-10-13T12:22:28;13.70;99.90
51725;DHT22;37801;53.224;6.552;2022-10-13T12:25:03;13.80;99.90
51725;DHT22;37801;53.224;6.552;2022-10-13T12:27:30;13.80;99.90
51725;DHT22;37801;53.224;6.552;2022-10-13T12:30:00;13.80;99.90
51725;DHT22;37801;53.224;6.552;2022-10-13T12:32:29;13.80;99.90
51725;DHT22;37801;53.224;6.552;2022-10-13T12:34:55;13.80;99.90
51725;DHT22;37801;53.224;6.552;2022-10-13T12:37:29;13.90;99.90
51725;DHT22;37801;53.224;6.552;2022-10-13T12:39:58;13.80;99.90
51725;DHT22;37801;53.224;6.552;2022-10-13T12:42:30;13.80;99.90
51725;DHT22;37801;53.224;6.552;2022-10-13T12:45:00;13.80;99.90
51725;DHT22;37801;53.224;6.552;2022-10-13T12:50:30;13.90;99.90
51725;DHT22;37801;53.224;6.552;2022-10-13T12:53:17;13.90;99.90
51725;DHT22;37801;53.224;6.552;2022-10-13T12:55:53;13.80;99.90
51725;DHT22;37801;53.224;6.552;2022-10-13T12:58:34;13.90;99.90
51725;DHT22;37801;53.224;6.552;2022-10-13T13:01:28;13.80;99.90
51725;DHT22;37801;53.224;6.552;2022-10-13T13:04:01;13.80;99.90
51725;DHT22;37801;53.224;6.552;2022-10-13T13:06:39;13.80;99.90
51725;DHT22;37801;53.224;6.552;2022-10-13T13:09:17;13.80;99.90
51725;DHT22;37801;53.224;6.552;2022-10-13T13:11:44;13.80;99.90
51725;DHT22;37801;53.224;6.552;2022-10-13T13:14:33;13.80;99.90
51725;DHT22;37801;53.224;6.552;2022-10-13T13:19:46;13.80;99.90
51725;DHT22;37801;53.224;6.552;2022-10-13T13:22:12;13.80;99.90
51725;DHT22;37801;53.224;6.552;2022-10-13T13:24:37;13.70;99.90
51725;DHT22;37801;53.224;6.552;2022-10-13T13:29:43;13.70;99.90
51725;DHT22;37801;53.224;6.552;2022-10-13T13:32:14;13.80;99.90
51725;DHT22;37801;53.224;6.552;2022-10-13T13:34:40;13.70;99.90
51725;DHT22;37801;53.224;6.552;2022-10-13T13:37:34;13.80;99.90
51725;DHT22;37801;53.224;6.552;2022-10-13T13:40:01;13.80;99.90
51725;DHT22;37801;53.224;6.552;2022-10-13T13:42:27;13.90;99.90
51725;DHT22;37801;53.224;6.552;2022-10-13T13:44:53;13.90;99.90
51725;DHT22;37801;53.224;6.552;2022-10-13T13:47:24;13.90;99.90
51725;DHT22;37801;53.224;6.552;2022-10-13T13:49:52;13.90;99.90
51725;DHT22;37801;53.224;6.552;2022-10-13T13:52:19;13.90;99.90
51725;DHT22;37801;53.224;6.552;2022-10-13T13:54:46;13.90;99.90
51725;DHT22;37801;53.224;6.552;2022-10-13T13:57:13;14.00;99.90
51725;DHT22;37801;53.224;6.552;2022-10-13T13:59:40;14.00;99.90
51725;DHT22;37801;53.224;6.552;2022-10-13T14:02:12;14.00;99.90
51725;DHT22;37801;53.224;6.552;2022-10-13T14:04:38;14.00;99.90
51725;DHT22;37801;53.224;6.552;2022-10-13T14:07:04;13.90;99.90
51725;DHT22;37801;53.224;6.552;2022-10-13T14:09:29;13.90;99.90
51725;DHT22;37801;53.224;6.552;2022-10-13T14:11:55;13.90;99.90
51725;DHT22;37801;53.224;6.552;2022-10-13T14:14:21;13.90;99.90
51725;DHT22;37801;53.224;6.552;2022-10-13T14:16:46;13.90;99.90
51725;DHT22;37801;53.224;6.552;2022-10-13T14:19:12;13.80;99.90
51725;DHT22;37801;53.224;6.552;2022-10-13T14:21:38;13.80;99.90
51725;DHT22;37801;53.224;6.552;2022-10-13T14:24:04;13.80;99.90
51725;DHT22;37801;53.224;6.552;2022-10-13T14:26:30;13.80;99.90
51725;DHT22;37801;53.224;6.552;2022-10-13T14:28:56;13.80;99.90
51725;DHT22;37801;53.224;6.552;2022-10-13T14:31:23;13.80;99.90
51725;DHT22;37801;53.224;6.552;2022-10-13T14:33:49;13.80;99.90
51725;DHT22;37801;53.224;6.552;2022-10-13T14:36:14;13.80;99.90
51725;DHT22;37801;53.224;6.552;2022-10-13T14:38:40;13.70;99.90
51725;DHT22;37801;53.224;6.552;2022-10-13T14:41:06;13.70;99.90
51725;DHT22;37801;53.224;6.552;2022-10-13T14:43:32;13.70;99.90
51725;DHT22;37801;53.224;6.552;2022-10-13T14:46:02;13.70;99.90
51725;DHT22;37801;53.224;6.552;2022-10-13T14:48:33;13.70;99.90
51725;DHT22;37801;53.224;6.552;2022-10-13T14:51:06;13.70;99.90
51725;DHT22;37801;53.224;6.552;2022-10-13T14:53:33;13.70;99.90
51725;DHT22;37801;53.224;6.552;2022-10-13T14:55:59;13.70;99.90
51725;DHT22;37801;53.224;6.552;2022-10-13T14:58:25;13.70;99.90
51725;DHT22;37801;53.224;6.552;2022-10-13T15:00:51;13.60;99.90
51725;DHT22;37801;53.224;6.552;2022-10-13T15:03:18;13.60;99.90
51725;DHT22;37801;53.224;6.552;2022-10-13T15:05:43;13.60;99.90
51725;DHT22;37801;53.224;6.552;2022-10-13T15:08:09;13.60;99.90
51725;DHT22;37801;53.224;6.552;2022-10-13T15:10:35;13.60;99.90
51725;DHT22;37801;53.224;6.552;2022-10-13T15:13:00;13.60;99.90
51725;DHT22;37801;53.224;6.552;2022-10-13T15:15:26;13.60;99.90
51725;DHT22;37801;53.224;6.552;2022-10-13T15:17:52;13.60;99.90
51725;DHT22;37801;53.224;6.552;2022-10-13T15:20:18;13.60;99.90
51725;DHT22;37801;53.224;6.552;2022-10-13T15:22:45;13.60;99.90
51725;DHT22;37801;53.224;6.552;2022-10-13T15:25:11;13.60;99.90
51725;DHT22;37801;53.224;6.552;2022-10-13T15:27:37;13.60;99.90
51725;DHT22;37801;53.224;6.552;2022-10-13T15:30:05;13.60;99.90
51725;DHT22;37801;53.224;6.552;2022-10-13T15:32:31;13.60;99.90
51725;DHT22;37801;53.224;6.552;2022-10-13T15:34:57;13.60;99.90
51725;DHT22;37801;53.224;6.552;2022-10-13T15:37:23;13.50;99.90
51725;DHT22;37801;53.224;6.552;2022-10-13T15:39:48;13.50;99.90
51725;DHT22;37801;53.224;6.552;2022-10-13T15:42:14;13.50;99.90
51725;DHT22;37801;53.224;6.552;2022-10-13T15:44:40;13.50;99.90
51725;DHT22;37801;53.224;6.552;2022-10-13T15:47:06;13.50;99.90
51725;DHT22;37801;53.224;6.552;2022-10-13T15:49:34;13.50;99.90
51725;DHT22;37801;53.224;6.552;2022-10-13T15:52:03;13.50;99.90
51725;DHT22;37801;53.224;6.552;2022-10-13T15:54:29;13.40;99.90
51725;DHT22;37801;53.224;6.552;2022-10-13T15:56:55;13.50;99.90
51725;DHT22;37801;53.224;6.552;2022-10-13T15:59:21;13.40;99.90
51725;DHT22;37801;53.224;6.552;2022-10-13T16:01:46;13.40;99.90
51725;DHT22;37801;53.224;6.552;2022-10-13T16:04:12;13.40;99.90
51725;DHT22;37801;53.224;6.552;2022-10-13T16:06:38;13.40;99.90
51725;DHT22;37801;53.224;6.552;2022-10-13T16:09:03;13.30;99.90
51725;DHT22;37801;53.224;6.552;2022-10-13T16:11:29;13.40;99.90
51725;DHT22;37801;53.224;6.552;2022-10-13T16:13:55;13.30;99.90
51725;DHT22;37801;53.224;6.552;2022-10-13T16:16:21;13.30;99.90
51725;DHT22;37801;53.224;6.552;2022-10-13T16:18:47;13.30;99.90
51725;DHT22;37801;53.224;6.552;2022-10-13T16:21:19;13.30;99.90
51725;DHT22;37801;53.224;6.552;2022-10-13T16:23:46;13.30;99.90
51725;DHT22;37801;53.224;6.552;2022-10-13T16:26:12;13.30;99.90
51725;DHT22;37801;53.224;6.552;2022-10-13T16:28:38;13.30;99.90
51725;DHT22;37801;53.224;6.552;2022-10-13T16:31:08;13.20;99.90
51725;DHT22;37801;53.224;6.552;2022-10-13T16:33:37;13.20;99.90
51725;DHT22;37801;53.224;6.552;2022-10-13T16:36:05;13.20;99.90
51725;DHT22;37801;53.224;6.552;2022-10-13T16:38:31;13.20;99.90
51725;DHT22;37801;53.224;6.552;2022-10-13T16:40:57;13.10;99.90
51725;DHT22;37801;53.224;6.552;2022-10-13T16:43:22;13.10;99.90
51725;DHT22;37801;53.224;6.552;2022-10-13T16:45:59;13.10;99.90
51725;DHT22;37801;53.224;6.552;2022-10-13T16:48:25;13.10;99.90
51725;DHT22;37801;53.224;6.552;2022-10-13T16:50:51;13.00;99.90
51725;DHT22;37801;53.224;6.552;2022-10-13T16:53:17;13.00;99.90
51725;DHT22;37801;53.224;6.552;2022-10-13T16:55:43;13.00;99.90
51725;DHT22;37801;53.224;6.552;2022-10-13T16:58:09;13.00;99.90
51725;DHT22;37801;53.224;6.552;2022-10-13T17:00:36;13.00;99.90
51725;DHT22;37801;53.224;6.552;2022-10-13T17:03:03;13.00;99.90
51725;DHT22;37801;53.224;6.552;2022-10-13T17:05:29;13.00;99.90
51725;DHT22;37801;53.224;6.552;2022-10-13T17:07:54;13.00;99.90
51725;DHT22;37801;53.224;6.552;2022-10-13T17:10:20;13.00;99.90
51725;DHT22;37801;53.224;6.552;2022-10-13T17:12:46;13.00;99.90
51725;DHT22;37801;53.224;6.552;2022-10-13T17:15:12;13.00;99.90
51725;DHT22;37801;53.224;6.552;2022-10-13T17:17:38;13.00;99.90
51725;DHT22;37801;53.224;6.552;2022-10-13T17:20:04;13.00;99.90
51725;DHT22;37801;53.224;6.552;2022-10-13T17:22:30;12.90;99.90
51725;DHT22;37801;53.224;6.552;2022-10-13T17:24:56;12.90;99.90